createdAt,value
2019-04-25T00:01:58.358Z,17.70
2019-04-25T00:04:29.096Z,16.43
2019-04-25T00:06:59.498Z,18.00
2019-04-25T00:09:31.844Z,17.57
2019-04-25T00:12:02.745Z,17.77
2019-04-25T00:14:33.356Z,16.07
2019-04-25T00:17:04.081Z,15.70
2019-04-25T00:19:34.462Z,16.90
2019-04-25T00:22:18.412Z,18.03
2019-04-25T00:24:52.030Z,15.63
2019-04-25T00:27:25.038Z,15.73
2019-04-25T00:29:56.108Z,18.67
2019-04-25T00:32:26.738Z,19.20
2019-04-25T00:34:57.089Z,19.03
2019-04-25T00:37:27.892Z,20.03
2019-04-25T00:39:58.285Z,21.03
2019-04-25T00:42:28.955Z,19.80
2019-04-25T00:44:59.359Z,20.30
2019-04-25T00:47:31.266Z,20.53
2019-04-25T00:50:02.573Z,19.53
2019-04-25T00:52:33.334Z,20.00
2019-04-25T00:55:04.587Z,20.70
2019-04-25T00:57:36.380Z,22.53
2019-04-25T01:00:30.671Z,21.87
2019-04-25T01:03:03.324Z,21.67
2019-04-25T01:05:33.847Z,20.90
2019-04-25T01:08:04.583Z,20.87
2019-04-25T01:10:34.959Z,22.70
2019-04-25T01:13:05.478Z,22.90
2019-04-25T01:15:36.353Z,21.37
2019-04-25T01:18:08.677Z,22.33
2019-04-25T01:20:39.218Z,19.20
2019-04-25T01:23:09.588Z,20.23
2019-04-25T01:25:42.682Z,20.67
2019-04-25T01:28:13.243Z,20.50
2019-04-25T01:30:43.969Z,20.73
2019-04-25T01:33:14.634Z,18.20
2019-04-25T01:35:54.277Z,20.57
2019-04-25T01:38:33.524Z,17.53
2019-04-25T01:41:05.896Z,18.47
2019-04-25T01:43:38.314Z,20.33
2019-04-25T01:46:09.317Z,20.63
2019-04-25T01:48:39.741Z,19.03
2019-04-25T01:51:10.774Z,19.23
2019-04-25T01:53:41.794Z,18.70
2019-04-25T01:56:13.539Z,19.57
2019-04-25T01:58:44.677Z,17.90
2019-04-25T02:01:15.386Z,19.23
2019-04-25T02:03:45.802Z,18.50
2019-04-25T02:06:16.898Z,19.40
2019-04-25T02:08:47.269Z,19.70
2019-04-25T02:11:19.715Z,18.73
2019-04-25T02:13:51.315Z,20.60
2019-04-25T02:16:21.850Z,19.70
2019-04-25T02:18:55.062Z,20.53
2019-04-25T02:21:25.138Z,20.03
2019-04-25T02:23:56.603Z,20.63
2019-04-25T02:26:27.393Z,20.27
2019-04-25T02:28:58.448Z,19.27
2019-04-25T02:31:28.842Z,21.27
2019-04-25T02:34:00.721Z,20.90
2019-04-25T02:36:34.505Z,21.93
2019-04-25T02:39:09.193Z,19.70
2019-04-25T02:41:39.716Z,21.17
2019-04-25T02:44:10.810Z,20.87
2019-04-25T02:47:01.038Z,19.63
2019-04-25T02:49:44.580Z,20.73
2019-04-25T02:52:25.181Z,21.30
2019-04-25T02:54:56.917Z,19.93
2019-04-25T02:57:28.107Z,21.27
2019-04-25T03:00:00.165Z,21.93
2019-04-25T03:02:30.989Z,20.77
2019-04-25T03:05:03.984Z,21.37
2019-04-25T03:07:34.721Z,21.97
2019-04-25T03:10:09.790Z,19.83
2019-04-25T03:12:40.671Z,20.20
2019-04-25T03:15:11.087Z,19.00
2019-04-25T03:17:44.409Z,20.30
2019-04-25T03:20:24.949Z,20.27
2019-04-25T03:22:55.700Z,19.83
2019-04-25T03:25:26.105Z,18.80
2019-04-25T03:27:57.448Z,20.20
2019-04-25T03:30:28.369Z,19.23
2019-04-25T03:32:58.771Z,21.40
2019-04-25T03:35:29.879Z,21.70
2019-04-25T03:38:01.570Z,20.10
2019-04-25T03:40:34.049Z,21.70
2019-04-25T03:43:05.107Z,21.23
2019-04-25T03:45:36.730Z,20.63
2019-04-25T03:48:07.573Z,20.80
2019-04-25T03:50:38.421Z,22.03
2019-04-25T03:53:08.788Z,22.00
2019-04-25T03:55:39.531Z,21.70
2019-04-25T03:58:10.906Z,21.07
2019-04-25T04:00:44.741Z,22.13
2019-04-25T04:03:15.458Z,21.80
2019-04-25T04:05:45.802Z,21.47
2019-04-25T04:08:16.212Z,20.30
2019-04-25T04:10:46.955Z,19.10
2019-04-25T04:13:17.325Z,20.70
2019-04-25T04:15:47.672Z,19.33
2019-04-25T04:18:27.058Z,20.57
2019-04-25T04:21:09.012Z,19.80
2019-04-25T04:23:44.074Z,18.23
2019-04-25T04:26:15.706Z,19.50
2019-04-25T04:28:46.196Z,16.67
2019-04-25T04:31:17.084Z,12.20
2019-04-25T04:33:47.570Z,12.77
2019-04-25T04:36:19.009Z,14.10
2019-04-25T04:38:49.924Z,14.10
2019-04-25T04:41:20.688Z,12.70
2019-04-25T04:43:51.106Z,12.57
2019-04-25T04:46:21.979Z,12.37
2019-04-25T04:48:54.023Z,13.07
2019-04-25T04:51:25.326Z,13.40
2019-04-25T04:53:55.969Z,12.30
2019-04-25T04:56:26.350Z,12.23
2019-04-25T04:58:56.993Z,11.87
2019-04-25T05:01:29.120Z,11.30
2019-04-25T05:04:01.158Z,10.17
2019-04-25T05:06:36.418Z,11.07
2019-04-25T05:09:12.476Z,11.30
2019-04-25T05:11:44.164Z,10.97
2019-04-25T05:14:16.135Z,10.53
2019-04-25T05:16:49.414Z,10.60
2019-04-25T05:19:18.690Z,9.07
2019-04-25T05:21:49.061Z,10.00
2019-04-25T05:24:19.757Z,9.97
2019-04-25T05:26:50.104Z,10.60
2019-04-25T05:29:23.260Z,9.63
2019-04-25T05:31:54.275Z,10.83
2019-04-25T05:34:25.958Z,11.17
2019-04-25T05:36:56.793Z,10.60
2019-04-25T05:39:27.222Z,11.17
2019-04-25T05:42:07.593Z,11.33
2019-04-25T05:44:37.663Z,11.77
2019-04-25T05:47:08.086Z,13.30
2019-04-25T05:49:38.445Z,11.63
2019-04-25T05:52:08.839Z,12.43
2019-04-25T05:54:39.187Z,11.57
2019-04-25T05:57:09.563Z,10.30
2019-04-25T05:59:40.721Z,9.90
2019-04-25T06:02:11.398Z,10.20
2019-04-25T06:04:43.559Z,8.57
2019-04-25T06:07:14.560Z,6.33
2019-04-25T06:09:47.272Z,4.73
2019-04-25T06:12:19.857Z,3.30
2019-04-25T06:14:50.754Z,3.27
2019-04-25T06:17:30.056Z,3.10
2019-04-25T06:20:05.998Z,2.70
2019-04-25T06:22:53.281Z,2.70
2019-04-25T06:25:32.111Z,1.87
2019-04-25T06:28:03.692Z,1.87
2019-04-25T06:30:35.254Z,1.53
2019-04-25T06:33:05.991Z,1.30
2019-04-25T06:35:36.820Z,1.90
2019-04-25T06:38:07.563Z,2.50
2019-04-25T06:40:37.894Z,2.77
2019-04-25T06:43:08.329Z,2.43
2019-04-25T06:45:45.995Z,1.80
2019-04-25T06:48:18.004Z,1.60
2019-04-25T06:50:48.715Z,1.50
2019-04-25T06:53:19.077Z,1.57
2019-04-25T06:55:49.765Z,1.37
2019-04-25T06:58:21.413Z,1.77
2019-04-25T07:00:58.846Z,2.20
2019-04-25T07:03:25.760Z,1.80
2019-04-25T07:05:56.657Z,2.90
2019-04-25T07:08:27.797Z,3.03
2019-04-25T07:10:58.524Z,2.00
2019-04-25T07:13:28.886Z,2.20
2019-04-25T07:15:59.248Z,1.87
2019-04-25T07:18:32.434Z,1.83
2019-04-25T07:21:03.346Z,1.87
2019-04-25T07:23:34.651Z,1.40
2019-04-25T07:26:06.937Z,1.10
2019-04-25T07:28:41.864Z,1.47
2019-04-25T07:31:14.996Z,1.70
2019-04-25T07:33:49.643Z,1.87
2019-04-25T07:36:20.466Z,1.83
2019-04-25T07:39:04.893Z,1.87
2019-04-25T07:41:24.200Z,1.33
2019-04-25T07:43:56.210Z,1.90
2019-04-25T07:46:26.575Z,2.07
2019-04-25T07:48:56.914Z,1.50
2019-04-25T07:51:28.253Z,1.63
2019-04-25T07:53:58.618Z,1.90
2019-04-25T07:56:29.415Z,1.60
2019-04-25T07:58:59.748Z,1.90
2019-04-25T08:01:31.105Z,1.60
2019-04-25T08:04:01.468Z,1.50
2019-04-25T08:06:33.421Z,1.40
2019-04-25T08:09:06.648Z,1.73
2019-04-25T08:11:38.221Z,1.70
2019-04-25T08:14:19.652Z,1.70
2019-04-25T08:17:01.409Z,1.30
2019-04-25T08:19:33.277Z,1.43
2019-04-25T08:22:04.234Z,1.20
2019-04-25T08:24:35.946Z,1.00
2019-04-25T08:27:06.824Z,1.57
2019-04-25T08:29:39.277Z,1.53
2019-04-25T08:32:10.680Z,1.60
2019-04-25T08:34:41.408Z,1.30
2019-04-25T08:37:18.871Z,1.40
2019-04-25T08:39:45.213Z,1.33
2019-04-25T08:42:15.631Z,1.13
2019-04-25T08:44:46.509Z,1.17
2019-04-25T08:47:16.964Z,1.30
2019-04-25T08:49:49.603Z,1.20
2019-04-25T08:52:20.658Z,1.40
2019-04-25T08:54:54.308Z,1.00
2019-04-25T08:57:26.719Z,2.00
2019-04-25T09:00:01.715Z,1.10
2019-04-25T09:02:36.065Z,0.83
2019-04-25T09:05:24.408Z,1.10
2019-04-25T09:07:55.000Z,1.47
2019-04-25T09:10:26.127Z,0.80
2019-04-25T09:12:57.550Z,0.83
2019-04-25T09:15:28.205Z,0.60
2019-04-25T09:17:59.122Z,0.50
2019-04-25T09:20:29.775Z,0.63
2019-04-25T09:23:00.739Z,0.90
2019-04-25T09:25:31.350Z,0.57
2019-04-25T09:28:01.722Z,0.60
2019-04-25T09:30:33.982Z,0.60
2019-04-25T09:33:04.700Z,0.60
2019-04-25T09:35:36.255Z,0.60
2019-04-25T09:38:07.123Z,0.50
2019-04-25T09:40:37.855Z,0.53
2019-04-25T09:43:08.549Z,0.60
2019-04-25T09:45:50.051Z,0.50
2019-04-25T09:48:29.316Z,0.77
2019-04-25T09:51:07.016Z,0.50
2019-04-25T09:53:44.706Z,0.50
2019-04-25T09:56:16.431Z,0.60
2019-04-25T09:58:57.826Z,0.73
2019-04-25T10:01:28.177Z,0.50
2019-04-25T10:03:58.546Z,0.50
2019-04-25T10:06:29.254Z,0.70
2019-04-25T10:08:59.690Z,0.63
2019-04-25T10:11:30.314Z,0.50
2019-04-25T10:14:35.318Z,0.47
2019-04-25T10:17:06.013Z,0.80
2019-04-25T10:19:37.741Z,0.60
2019-04-25T10:22:08.961Z,0.50
2019-04-25T10:24:39.768Z,0.60
2019-04-25T10:27:10.530Z,0.67
2019-04-25T10:29:48.227Z,0.50
2019-04-25T10:32:15.080Z,0.77
2019-04-25T10:34:46.287Z,0.60
2019-04-25T10:37:17.048Z,0.63
2019-04-25T10:39:47.414Z,0.57
2019-04-25T10:42:18.539Z,0.70
2019-04-25T10:44:49.265Z,0.50
2019-04-25T10:47:19.647Z,1.00
2019-04-25T10:49:51.579Z,0.80
2019-04-25T10:52:23.471Z,0.63
2019-04-25T10:54:54.395Z,0.60
2019-04-25T10:57:26.411Z,0.50
2019-04-25T11:00:06.385Z,0.70
2019-04-25T11:02:29.169Z,0.47
2019-04-25T11:05:03.409Z,0.60
2019-04-25T11:07:34.088Z,0.50
2019-04-25T11:10:06.268Z,0.60
2019-04-25T11:12:36.606Z,0.70
2019-04-25T11:15:07.039Z,0.77
2019-04-25T11:17:38.190Z,0.70
2019-04-25T11:20:10.567Z,0.60
2019-04-25T11:22:42.381Z,0.70
2019-04-25T11:25:15.014Z,0.63
2019-04-25T11:27:47.353Z,0.50
2019-04-25T11:30:17.763Z,0.60
2019-04-25T11:32:48.163Z,0.70
2019-04-25T11:35:19.025Z,0.50
2019-04-25T11:37:50.985Z,0.60
2019-04-25T11:40:26.350Z,0.50
2019-04-25T11:42:57.079Z,0.60
2019-04-25T11:45:28.141Z,0.50
2019-04-25T11:47:58.500Z,0.60
2019-04-25T11:50:29.402Z,0.50
2019-04-25T11:52:59.801Z,0.53
2019-04-25T11:55:30.168Z,0.57
2019-04-25T11:58:00.660Z,0.50
2019-04-25T12:00:33.795Z,0.50
2019-04-25T12:03:04.807Z,0.80
2019-04-25T12:05:35.752Z,0.60
2019-04-25T12:08:06.969Z,0.50
2019-04-25T12:10:38.863Z,0.60
2019-04-25T12:13:09.590Z,0.50
2019-04-25T12:15:40.232Z,0.60
2019-04-25T12:18:11.125Z,0.77
2019-04-25T12:20:41.465Z,0.53
2019-04-25T12:23:14.302Z,0.50
2019-04-25T12:25:46.246Z,0.80
2019-04-25T12:28:16.689Z,0.50
2019-04-25T12:30:47.964Z,0.50
2019-04-25T12:33:21.477Z,0.50
2019-04-25T12:35:51.952Z,0.60
2019-04-25T12:38:24.471Z,0.60
2019-04-25T12:40:55.340Z,0.60
2019-04-25T12:43:27.424Z,0.50
2019-04-25T12:46:06.097Z,0.70
2019-04-25T12:48:37.049Z,0.40
2019-04-25T12:51:07.483Z,0.53
2019-04-25T12:53:38.419Z,0.50
2019-04-25T12:56:08.746Z,0.70
2019-04-25T12:58:39.144Z,0.47
2019-04-25T13:01:09.777Z,0.50
2019-04-25T13:03:40.704Z,0.50
2019-04-25T13:06:11.750Z,0.60
2019-04-25T13:08:42.111Z,0.60
2019-04-25T13:11:13.953Z,0.50
2019-04-25T13:13:44.812Z,0.50
2019-04-25T13:16:15.739Z,0.60
2019-04-25T13:18:46.137Z,0.70
2019-04-25T13:21:16.580Z,0.60
2019-04-25T13:23:46.951Z,0.60
2019-04-25T13:26:19.389Z,0.60
2019-04-25T13:28:54.036Z,0.50
2019-04-25T13:31:35.611Z,0.80
2019-04-25T13:34:14.160Z,1.00
2019-04-25T13:36:44.648Z,1.13
2019-04-25T13:39:19.843Z,0.70
2019-04-25T13:41:50.188Z,0.83
2019-04-25T13:44:20.565Z,0.90
2019-04-25T13:46:53.208Z,0.80
2019-04-25T13:49:25.017Z,0.90
2019-04-25T13:51:55.477Z,0.80
2019-04-25T13:54:26.645Z,0.60
2019-04-25T13:56:57.309Z,0.83
2019-04-25T13:59:28.313Z,1.17
2019-04-25T14:01:59.363Z,0.90
2019-04-25T14:04:31.460Z,1.40
2019-04-25T14:07:02.439Z,1.37
2019-04-25T14:09:34.676Z,1.70
2019-04-25T14:12:05.797Z,1.30
2019-04-25T14:14:36.439Z,1.45
2019-04-25T14:17:08.518Z,1.20
2019-04-25T14:19:49.707Z,1.17
2019-04-25T14:22:21.027Z,1.10
2019-04-25T14:24:53.999Z,1.43
2019-04-25T14:27:26.284Z,1.20
2019-04-25T14:29:56.702Z,1.40
2019-04-25T14:32:28.917Z,1.27
2019-04-25T14:34:59.598Z,1.17
2019-04-25T14:37:38.379Z,1.50
2019-04-25T14:40:04.046Z,1.10
2019-04-25T14:42:34.850Z,1.30
2019-04-25T14:45:07.569Z,1.43
2019-04-25T14:47:38.232Z,1.10
2019-04-25T14:50:08.862Z,1.10
2019-04-25T14:52:39.243Z,1.23
2019-04-25T14:55:29.719Z,0.90
2019-04-25T14:58:00.752Z,1.07
2019-04-25T15:00:35.770Z,1.07
2019-04-25T15:03:07.122Z,1.17
2019-04-25T15:05:37.508Z,1.10
2019-04-25T15:08:08.391Z,1.10
2019-04-25T15:10:39.477Z,1.43
2019-04-25T15:13:11.613Z,1.00
2019-04-25T15:15:42.509Z,1.00
2019-04-25T15:18:13.316Z,1.00
2019-04-25T15:20:44.366Z,1.00
2019-04-25T15:23:14.996Z,1.03
2019-04-25T15:25:45.861Z,0.80
2019-04-25T15:28:16.201Z,0.93
2019-04-25T15:30:46.570Z,0.70
2019-04-25T15:33:16.952Z,0.67
2019-04-25T15:35:49.327Z,0.70
2019-04-25T15:38:21.302Z,0.70
2019-04-25T15:40:56.306Z,0.67
2019-04-25T15:43:32.039Z,0.87
2019-04-25T15:46:10.583Z,0.70
2019-04-25T15:48:41.263Z,0.80
2019-04-25T15:51:11.992Z,0.70
2019-04-25T15:53:43.044Z,0.53
2019-04-25T15:56:13.410Z,0.60
2019-04-25T15:58:43.794Z,0.60
2019-04-25T16:01:14.487Z,0.80
2019-04-25T16:03:45.247Z,0.57
2019-04-25T16:06:15.883Z,0.50
2019-04-25T16:08:46.391Z,0.60
2019-04-25T16:11:22.821Z,0.50
2019-04-25T16:13:53.520Z,0.50
2019-04-25T16:16:24.521Z,0.60
2019-04-25T16:18:55.143Z,0.90
2019-04-25T16:21:25.480Z,0.60
2019-04-25T16:23:56.337Z,0.60
2019-04-25T16:26:28.040Z,0.70
2019-04-25T16:28:58.500Z,0.50
2019-04-25T16:31:29.547Z,0.70
2019-04-25T16:34:00.816Z,0.83
2019-04-25T16:36:32.319Z,0.70
2019-04-25T16:39:04.000Z,0.80
2019-04-25T16:41:35.151Z,0.60
2019-04-25T16:44:07.514Z,0.80
2019-04-25T16:46:38.357Z,0.50
2019-04-25T16:49:08.739Z,0.80
2019-04-25T16:51:39.462Z,0.70
2019-04-25T16:54:10.190Z,0.80
2019-04-25T16:56:41.699Z,0.80
2019-04-25T16:59:12.962Z,0.93
2019-04-25T17:01:43.710Z,0.50
2019-04-25T17:04:14.427Z,0.60
2019-04-25T17:06:45.911Z,0.60
2019-04-25T17:09:17.050Z,0.53
2019-04-25T17:11:47.880Z,0.40
2019-04-25T17:14:29.361Z,0.63
2019-04-25T17:17:14.153Z,0.70
2019-04-25T17:19:55.329Z,0.77
2019-04-25T17:22:26.765Z,0.77
2019-04-25T17:24:57.123Z,0.90
2019-04-25T17:27:27.493Z,1.00
2019-04-25T17:29:58.198Z,0.90
2019-04-25T17:32:30.692Z,0.73
2019-04-25T17:35:06.497Z,0.60
2019-04-25T17:37:38.891Z,0.80
2019-04-25T17:40:14.111Z,0.73
2019-04-25T17:42:44.788Z,0.60
2019-04-25T17:45:17.106Z,0.77
2019-04-25T17:47:54.571Z,0.70
2019-04-25T17:50:20.686Z,0.87
2019-04-25T17:52:51.407Z,0.70
2019-04-25T17:55:21.779Z,0.70
2019-04-25T17:57:52.846Z,1.00
2019-04-25T18:00:31.043Z,1.40
2019-04-25T18:03:01.382Z,1.47
2019-04-25T18:05:32.337Z,2.20
2019-04-25T18:08:03.043Z,1.40
2019-04-25T18:10:34.334Z,1.30
2019-04-25T18:13:05.883Z,1.43
2019-04-25T18:15:41.763Z,0.97
2019-04-25T18:18:17.145Z,1.30
2019-04-25T18:20:47.506Z,1.10
2019-04-25T18:23:36.610Z,0.80
2019-04-25T18:26:08.703Z,0.90
2019-04-25T18:28:46.656Z,1.00
2019-04-25T18:31:17.226Z,0.87
2019-04-25T18:33:49.214Z,0.87
2019-04-25T18:36:33.153Z,1.10
2019-04-25T18:39:05.454Z,0.80
2019-04-25T18:41:50.018Z,1.00
2019-04-25T18:44:21.191Z,0.90
2019-04-25T18:46:51.602Z,1.13
2019-04-25T18:49:22.318Z,1.20
2019-04-25T18:51:57.912Z,1.07
2019-04-25T18:54:28.049Z,1.20
2019-04-25T18:57:02.797Z,1.00
2019-04-25T18:59:49.591Z,1.20
2019-04-25T19:02:37.534Z,1.50
2019-04-25T19:05:10.835Z,1.60
2019-04-25T19:07:41.546Z,1.63
2019-04-25T19:10:13.715Z,1.10
2019-04-25T19:12:45.174Z,1.80
2019-04-25T19:15:15.942Z,1.93
2019-04-25T19:17:47.304Z,1.93
2019-04-25T19:20:17.816Z,2.30
2019-04-25T19:22:48.548Z,1.63
2019-04-25T19:25:19.306Z,1.67
2019-04-25T19:27:50.984Z,2.13
2019-04-25T19:30:21.659Z,1.60
2019-04-25T19:32:52.419Z,1.40
2019-04-25T19:35:23.052Z,1.80
2019-04-25T19:37:55.459Z,1.53
2019-04-25T19:44:28.435Z,1.57
2019-04-25T19:46:59.137Z,1.13
2019-04-25T19:49:29.771Z,1.40
2019-04-25T19:52:00.725Z,1.90
2019-04-25T19:54:31.401Z,1.40
2019-04-25T19:57:02.047Z,1.10
2019-04-25T19:59:32.807Z,0.90
2019-04-25T20:02:04.774Z,1.30
2019-04-25T20:04:40.346Z,1.53
2019-04-25T20:07:13.085Z,1.20
2019-04-25T20:09:46.908Z,1.77
2019-04-25T20:12:17.652Z,1.53
2019-04-25T20:14:48.005Z,1.77
2019-04-25T20:17:18.738Z,1.40
2019-04-25T20:19:49.804Z,1.90
2019-04-25T20:22:20.543Z,1.60
2019-04-25T20:24:50.916Z,1.60
2019-04-25T20:27:21.649Z,2.10
2019-04-25T20:29:52.758Z,1.37
2019-04-25T20:32:23.694Z,1.30
2019-04-25T20:34:55.205Z,1.80
2019-04-25T20:37:26.223Z,1.43
2019-04-25T20:39:57.235Z,1.77
2019-04-25T20:42:27.957Z,1.43
2019-04-25T20:44:58.650Z,1.63
2019-04-25T20:47:29.264Z,1.77
2019-04-25T20:49:59.645Z,1.33
2019-04-25T20:52:30.813Z,1.83
2019-04-25T20:55:01.473Z,1.60
2019-04-25T20:57:32.229Z,1.47
2019-04-25T21:00:03.222Z,1.43
2019-04-25T21:02:33.860Z,1.20
2019-04-25T21:05:05.049Z,1.20
2019-04-25T21:07:36.072Z,1.40
2019-04-25T21:10:07.275Z,1.30
2019-04-25T21:12:37.641Z,1.30
2019-04-25T21:15:19.441Z,1.40
2019-04-25T21:17:52.286Z,1.50
2019-04-25T21:20:23.350Z,1.53
2019-04-25T21:22:54.080Z,1.60
2019-04-25T21:25:24.859Z,0.93
2019-04-25T21:27:56.570Z,1.57
2019-04-25T21:30:26.956Z,1.30
2019-04-25T21:32:58.060Z,1.00
2019-04-25T21:35:28.849Z,1.30
2019-04-25T21:37:59.707Z,1.10
2019-04-25T21:40:35.169Z,1.27
2019-04-25T21:43:10.196Z,0.97
2019-04-25T21:45:41.422Z,1.10
2019-04-25T21:48:12.420Z,1.20
2019-04-25T21:50:43.407Z,1.30
2019-04-25T21:53:14.164Z,1.10
2019-04-25T21:55:45.541Z,1.47
2019-04-25T21:58:16.630Z,1.37
2019-04-25T22:00:52.359Z,1.10
2019-04-25T22:03:26.786Z,1.13
2019-04-25T22:05:58.623Z,1.50
2019-04-25T22:08:29.071Z,1.30
2019-04-25T22:11:01.053Z,1.37
2019-04-25T22:13:31.961Z,1.67
2019-04-25T22:16:03.838Z,2.00
2019-04-25T22:18:34.480Z,1.20
2019-04-25T22:21:05.008Z,1.60
2019-04-25T22:23:35.744Z,1.70
2019-04-25T22:26:07.043Z,1.63
2019-04-25T22:28:37.774Z,1.60
2019-04-25T22:31:10.005Z,1.73
2019-04-25T22:33:48.069Z,2.13
2019-04-25T22:36:20.833Z,1.80
2019-04-25T22:39:11.126Z,1.73
2019-04-25T22:41:46.579Z,1.83
2019-04-25T22:44:18.140Z,1.73
2019-04-25T22:46:49.224Z,2.00
2019-04-25T22:49:20.880Z,2.03
2019-04-25T22:51:51.214Z,2.27
2019-04-25T22:54:23.276Z,2.20
2019-04-25T22:56:54.059Z,1.90
2019-04-25T22:59:24.696Z,2.97
2019-04-25T23:01:57.114Z,2.20
2019-04-25T23:04:29.422Z,2.20
2019-04-25T23:07:02.411Z,3.17
2019-04-25T23:09:34.544Z,2.50
2019-04-25T23:12:06.674Z,2.37
2019-04-25T23:14:37.776Z,2.10
2019-04-25T23:17:09.384Z,2.47
2019-04-25T23:19:40.143Z,2.77
2019-04-25T23:22:11.469Z,2.57
2019-04-25T23:24:46.893Z,2.37
2019-04-25T23:27:19.523Z,2.10
2019-04-25T23:29:50.200Z,3.00
2019-04-25T23:32:20.785Z,2.53
2019-04-25T23:34:51.698Z,2.77
2019-04-25T23:37:22.426Z,2.40
2019-04-25T23:39:53.211Z,3.27
2019-04-25T23:42:23.571Z,3.23
2019-04-25T23:44:54.483Z,3.00
2019-04-25T23:47:24.843Z,3.70
2019-04-25T23:49:55.699Z,3.43
2019-04-25T23:52:26.883Z,3.30
2019-04-25T23:54:57.609Z,3.70
2019-04-25T23:57:27.942Z,3.53
2019-04-25T23:59:59.074Z,3.90
